Time;durP1;ratioP1;P1;durP2;ratioP2;P2;SDS_P1;SDS_P2;PMS_P1;PMS_P2;Temp;Humidity;BMP_temperature;BMP_pressure;BME280_temperature;BME280_humidity;BME280_pressure;Samples;Min_cycle;Max_cycle;Signal;HPM_P1;HPM_P2
2021/07/28 00:01:31;;;;;;;11.63;10.47;;;15.70;99.90;;;;;;4962182;29;20872;-71
2021/07/28 00:04:00;;;;;;;11.77;10.57;;;15.70;99.90;;;;;;4953645;29;20771;-71
2021/07/28 00:06:29;;;;;;;11.57;10.37;;;15.70;99.90;;;;;;4960540;29;20485;-71
2021/07/28 00:08:56;;;;;;;12.10;10.90;;;15.70;99.90;;;;;;4960044;29;20777;-71
2021/07/28 00:11:23;;;;;;;12.33;11.03;;;15.70;99.90;;;;;;4957111;29;20806;-70
2021/07/28 00:13:50;;;;;;;13.00;11.70;;;15.70;99.90;;;;;;4960942;29;20912;-70
2021/07/28 00:16:17;;;;;;;11.97;10.77;;;15.70;99.90;;;;;;4960721;29;20601;-71
2021/07/28 00:18:53;;;;;;;12.27;11.07;;;15.80;99.90;;;;;;4958298;29;20545;-70
2021/07/28 00:24:06;;;;;;;12.00;10.80;;;15.70;99.90;;;;;;4961699;29;20501;-70
2021/07/28 00:26:33;;;;;;;12.33;11.10;;;15.70;99.90;;;;;;4954762;29;20467;-70
2021/07/28 00:29:02;;;;;;;11.80;10.50;;;15.70;99.90;;;;;;4960627;29;20498;-71
2021/07/28 00:31:29;;;;;;;12.33;11.10;;;15.80;99.90;;;;;;4962509;29;20480;-70
2021/07/28 00:33:56;;;;;;;12.40;11.10;;;15.80;99.90;;;;;;4960151;29;20912;-70
2021/07/28 00:36:23;;;;;;;13.73;11.30;;;15.80;99.90;;;;;;4961245;29;20777;-70
2021/07/28 00:38:50;;;;;;;16.43;10.57;;;15.80;99.90;;;;;;4959434;29;20434;-70
2021/07/28 00:41:19;;;;;;;12.73;10.33;;;15.80;99.90;;;;;;4961315;29;20884;-71
2021/07/28 00:43:46;;;;;;;12.27;10.87;;;15.80;99.90;;;;;;4960511;29;20838;-71
2021/07/28 00:46:13;;;;;;;15.63;11.37;;;15.80;99.90;;;;;;4961093;29;20470;-70
2021/07/28 00:48:41;;;;;;;11.23;10.13;;;15.80;99.90;;;;;;4960606;29;20537;-71
2021/07/28 00:51:08;;;;;;;11.07;9.87;;;15.80;99.90;;;;;;4960148;29;20474;-70
2021/07/28 00:53:35;;;;;;;11.67;10.40;;;15.80;99.90;;;;;;4961557;29;20471;-70
2021/07/28 00:56:02;;;;;;;15.63;10.83;;;15.80;99.90;;;;;;4960020;29;20971;-70
2021/07/28 00:58:31;;;;;;;10.70;9.63;;;15.70;99.90;;;;;;4960578;29;20529;-71
2021/07/28 01:00:58;;;;;;;12.70;11.40;;;15.70;99.90;;;;;;4960352;29;20581;-70
2021/07/28 01:03:25;;;;;;;12.30;10.40;;;15.70;99.90;;;;;;4960291;29;20475;-70
2021/07/28 01:05:56;;;;;;;15.57;11.07;;;15.80;99.90;;;;;;4956463;28;20903;-69
2021/07/28 01:08:23;;;;;;;11.57;10.47;;;15.80;99.90;;;;;;4965876;28;20501;-70
2021/07/28 01:10:50;;;;;;;11.53;9.63;;;15.80;99.90;;;;;;4955433;28;20433;-69
2021/07/28 01:13:26;;;;;;;11.27;10.17;;;15.80;99.90;;;;;;4959522;29;20470;-69
2021/07/28 01:16:00;;;;;;;11.50;10.40;;;15.80;99.90;;;;;;4969492;28;20493;-71
2021/07/28 01:18:28;;;;;;;12.07;10.80;;;15.70;99.90;;;;;;4959908;29;20504;-68
2021/07/28 01:20:55;;;;;;;12.33;11.10;;;15.70;99.90;;;;;;4959603;29;20994;-69
2021/07/28 01:23:24;;;;;;;12.53;11.10;;;15.70;99.90;;;;;;4963624;28;20458;-70
2021/07/28 01:25:53;;;;;;;13.03;11.00;;;15.70;99.90;;;;;;4959855;28;20529;-69
2021/07/28 01:28:20;;;;;;;15.27;12.00;;;15.70;99.90;;;;;;4959991;29;20506;-69
2021/07/28 01:30:57;;;;;;;18.50;12.23;;;15.70;99.90;;;;;;4959147;29;20764;-70
2021/07/28 01:33:24;;;;;;;12.73;11.43;;;15.70;99.90;;;;;;4960349;29;20474;-70
2021/07/28 01:35:52;;;;;;;11.80;10.70;;;15.70;99.90;;;;;;4960405;29;20546;-70
2021/07/28 01:38:25;;;;;;;11.90;10.70;;;15.70;99.90;;;;;;4959270;29;20490;-70
2021/07/28 01:40:54;;;;;;;12.80;11.40;;;15.70;99.90;;;;;;4965978;28;20463;-70
2021/07/28 01:43:22;;;;;;;14.73;12.00;;;15.70;99.90;;;;;;4959387;28;20606;-70
2021/07/28 01:45:49;;;;;;;13.03;11.73;;;15.70;99.90;;;;;;4960328;29;20903;-70
2021/07/28 01:48:17;;;;;;;13.63;12.23;;;15.80;99.90;;;;;;4960236;29;20501;-70
2021/07/28 01:50:48;;;;;;;12.77;11.53;;;15.70;99.90;;;;;;4959912;29;20764;-70
2021/07/28 01:53:16;;;;;;;15.07;11.87;;;15.80;99.90;;;;;;4959457;29;20474;-69
2021/07/28 01:55:46;;;;;;;13.47;12.07;;;15.80;99.90;;;;;;4959774;29;20578;-70
2021/07/28 01:58:15;;;;;;;12.87;11.67;;;15.70;99.90;;;;;;4960083;29;20462;-70
2021/07/28 02:00:42;;;;;;;12.70;11.40;;;15.70;99.90;;;;;;4956079;29;21006;-69
2021/07/28 02:03:09;;;;;;;14.40;12.10;;;15.70;99.90;;;;;;4956239;28;20485;-70
2021/07/28 02:05:38;;;;;;;14.47;12.53;;;15.70;99.90;;;;;;4961032;28;20470;-70
2021/07/28 02:08:07;;;;;;;14.43;12.80;;;15.80;99.90;;;;;;4963859;28;20473;-69
2021/07/28 02:10:41;;;;;;;14.63;12.90;;;15.80;99.90;;;;;;4971008;28;20498;-69
2021/07/28 02:13:09;;;;;;;12.43;11.33;;;15.80;99.90;;;;;;4962706;28;20493;-69
2021/07/28 02:15:37;;;;;;;16.90;12.00;;;15.80;99.90;;;;;;4958802;28;20466;-69
2021/07/28 02:18:06;;;;;;;15.60;14.00;;;15.70;99.90;;;;;;4957933;28;20877;-69
2021/07/28 02:20:33;;;;;;;13.30;11.90;;;15.70;99.90;;;;;;4957474;29;20478;-69
2021/07/28 02:23:04;;;;;;;13.17;11.83;;;15.70;99.90;;;;;;4962010;28;20955;-69
2021/07/28 02:25:31;;;;;;;14.63;13.23;;;15.70;99.90;;;;;;4956538;29;20807;-69
2021/07/28 02:27:59;;;;;;;14.47;12.03;;;15.70;99.90;;;;;;4957052;29;20470;-69
2021/07/28 02:30:26;;;;;;;16.87;12.00;;;15.70;99.90;;;;;;4957515;29;20546;-70
2021/07/28 02:32:54;;;;;;;16.57;12.70;;;15.70;99.90;;;;;;4959499;29;20471;-69
2021/07/28 02:35:21;;;;;;;14.20;12.70;;;15.80;99.90;;;;;;4957501;29;20470;-69
2021/07/28 02:37:48;;;;;;;13.53;12.13;;;15.70;99.90;;;;;;4959248;29;20545;-69
2021/07/28 02:40:17;;;;;;;12.53;11.23;;;15.70;99.90;;;;;;4963505;28;20466;-69
2021/07/28 02:42:44;;;;;;;15.63;11.80;;;15.70;99.90;;;;;;4958102;29;20470;-69
2021/07/28 02:45:15;;;;;;;13.17;11.87;;;15.70;99.90;;;;;;4959168;29;20474;-69
2021/07/28 02:47:42;;;;;;;14.37;12.87;;;15.70;99.90;;;;;;4956862;29;20984;-69
2021/07/28 02:50:11;;;;;;;14.20;12.80;;;15.70;99.90;;;;;;4959164;29;20506;-69
2021/07/28 02:52:39;;;;;;;18.23;13.50;;;15.70;99.90;;;;;;4955199;29;20547;-68
2021/07/28 02:55:15;;;;;;;15.50;14.00;;;15.70;99.90;;;;;;4957817;29;20479;-68
2021/07/28 02:57:42;;;;;;;15.03;13.53;;;15.70;99.90;;;;;;4951903;29;20474;-68
2021/07/28 03:00:10;;;;;;;15.07;13.47;;;15.70;99.90;;;;;;4957793;29;20570;-68
2021/07/28 03:39:31;;;;;;;18.20;14.33;;;15.80;99.90;;;;;;5149949;23;20629;-66
2021/07/28 03:41:57;;;;;;;16.93;15.23;;;15.80;99.90;;;;;;4957675;29;20513;-69
2021/07/28 03:44:25;;;;;;;15.43;14.00;;;15.80;99.90;;;;;;4959894;29;20474;-69
2021/07/28 03:46:55;;;;;;;17.00;14.67;;;15.80;99.90;;;;;;4953172;29;20470;-71
2021/07/28 03:49:22;;;;;;;16.53;14.37;;;15.90;99.90;;;;;;4948141;29;20562;-70
2021/07/28 03:51:49;;;;;;;15.47;13.83;;;15.80;99.90;;;;;;4958192;29;20470;-70
2021/07/28 03:54:16;;;;;;;17.60;14.87;;;15.80;99.90;;;;;;4961841;29;20927;-69
2021/07/28 03:56:44;;;;;;;16.27;14.60;;;15.80;99.90;;;;;;4961482;29;20471;-69
2021/07/28 03:59:11;;;;;;;17.87;16.17;;;15.80;99.90;;;;;;4961300;29;20463;-69
2021/07/28 04:01:38;;;;;;;16.07;14.47;;;15.80;99.90;;;;;;4961061;29;20470;-70
2021/07/28 04:04:05;;;;;;;18.90;14.93;;;15.80;99.90;;;;;;4950431;29;20471;-69
2021/07/28 04:06:33;;;;;;;17.50;15.27;;;15.80;99.90;;;;;;4960517;29;20521;-69
2021/07/28 04:09:00;;;;;;;16.50;15.00;;;15.80;99.90;;;;;;4959497;29;20497;-69
2021/07/28 04:11:27;;;;;;;16.63;14.93;;;15.80;99.90;;;;;;4960637;29;20477;-69
2021/07/28 04:13:55;;;;;;;16.83;15.13;;;15.80;99.90;;;;;;4960596;29;20463;-69
2021/07/28 04:16:22;;;;;;;15.43;13.80;;;15.80;99.90;;;;;;4960768;29;20466;-69
2021/07/28 04:18:49;;;;;;;16.83;14.57;;;15.90;99.90;;;;;;4961951;29;20466;-69
2021/07/28 04:21:16;;;;;;;16.73;13.93;;;15.90;99.90;;;;;;4961430;29;20463;-69
2021/07/28 04:23:43;;;;;;;16.40;14.30;;;15.80;99.90;;;;;;4961423;29;20469;-70
2021/07/28 04:26:10;;;;;;;15.30;13.67;;;15.90;99.90;;;;;;4961579;29;20463;-69
2021/07/28 04:28:37;;;;;;;16.87;15.07;;;15.90;99.90;;;;;;4960307;29;20745;-69
2021/07/28 04:31:05;;;;;;;17.20;14.80;;;15.90;99.90;;;;;;4960348;29;20442;-69
2021/07/28 04:33:32;;;;;;;15.43;13.97;;;15.90;99.90;;;;;;4959942;29;20526;-69
2021/07/28 04:36:00;;;;;;;13.53;12.13;;;15.90;99.90;;;;;;4960898;29;20526;-70
2021/07/28 04:38:27;;;;;;;20.10;15.53;;;15.90;99.90;;;;;;4960568;29;20458;-69
2021/07/28 04:40:57;;;;;;;18.40;15.00;;;15.90;99.90;;;;;;4960229;29;20506;-69
2021/07/28 04:43:24;;;;;;;15.30;13.63;;;15.90;99.90;;;;;;4959660;28;20502;-69
2021/07/28 04:45:58;;;;;;;15.70;14.10;;;15.90;99.90;;;;;;4961229;29;20466;-69
2021/07/28 04:48:27;;;;;;;17.10;14.60;;;15.90;99.90;;;;;;4959046;29;20474;-69
2021/07/28 04:50:54;;;;;;;16.07;14.53;;;15.90;99.90;;;;;;4959477;29;20827;-68
2021/07/28 04:53:21;;;;;;;16.67;13.77;;;16.00;99.90;;;;;;4960231;29;20437;-68
2021/07/28 04:55:52;;;;;;;13.70;12.30;;;16.10;99.90;;;;;;4960116;29;20474;-68
2021/07/28 04:58:20;;;;;;;15.47;13.83;;;16.20;99.90;;;;;;4959617;29;20458;-68
2021/07/28 05:00:47;;;;;;;14.57;13.03;;;16.30;99.90;;;;;;4959639;29;20467;-68
2021/07/28 05:03:14;;;;;;;14.07;12.67;;;16.30;99.90;;;;;;4954346;29;20479;-68
2021/07/28 05:05:43;;;;;;;13.30;12.10;;;16.30;99.90;;;;;;4957020;28;20478;-69
2021/07/28 05:08:10;;;;;;;13.17;11.40;;;16.40;99.90;;;;;;4958473;29;20475;-68
2021/07/28 05:10:40;;;;;;;13.00;11.77;;;16.40;99.90;;;;;;4959114;29;20574;-68
2021/07/28 05:13:07;;;;;;;14.10;12.40;;;16.50;99.90;;;;;;4960731;29;20458;-68
2021/07/28 05:15:34;;;;;;;13.20;12.00;;;16.50;99.90;;;;;;4960591;29;20529;-68
2021/07/28 05:18:02;;;;;;;13.10;11.80;;;16.60;99.90;;;;;;4961249;29;20530;-68
2021/07/28 05:20:28;;;;;;;13.53;12.13;;;16.50;99.90;;;;;;4960555;29;20482;-68
2021/07/28 05:22:57;;;;;;;13.13;11.93;;;16.50;99.90;;;;;;4960058;29;20753;-68
2021/07/28 05:25:24;;;;;;;14.90;12.53;;;16.50;99.90;;;;;;4960404;29;20467;-67
2021/07/28 05:27:51;;;;;;;13.97;12.57;;;16.60;99.90;;;;;;4960840;29;20459;-68
2021/07/28 06:43:56;;;;;;;10.93;9.93;;;16.90;99.90;;;;;;4953921;29;20906;-72
2021/07/28 07:23:15;;;;;;;12.43;11.23;;;16.90;99.90;;;;;;5336743;23;20446;-75
2021/07/28 07:25:42;;;;;;;12.13;10.90;;;16.90;99.90;;;;;;5017858;28;20499;-74
2021/07/28 07:28:09;;;;;;;17.33;10.20;;;17.10;99.90;;;;;;5017159;28;20467;-76
2021/07/28 07:30:36;;;;;;;15.83;10.63;;;17.20;99.90;;;;;;5015247;28;20491;-75
2021/07/28 07:35:47;;;;;;;13.27;10.37;;;17.30;99.90;;;;;;5015352;28;20432;-75
2021/07/28 07:38:16;;;;;;;11.47;9.93;;;17.50;99.90;;;;;;5016228;28;20456;-76
2021/07/28 07:40:43;;;;;;;10.30;9.20;;;17.80;99.90;;;;;;5016073;28;20487;-74
2021/07/28 07:43:11;;;;;;;11.30;9.67;;;18.30;99.90;;;;;;5015259;28;20918;-73
2021/07/28 07:45:38;;;;;;;11.73;9.87;;;18.50;99.90;;;;;;5015519;28;20475;-73
2021/07/28 07:48:05;;;;;;;13.53;9.47;;;18.30;99.90;;;;;;5016001;28;20460;-72
2021/07/28 07:50:35;;;;;;;10.07;9.03;;;18.50;99.90;;;;;;5015765;28;20483;-73
2021/07/28 07:53:03;;;;;;;9.90;8.90;;;19.20;99.90;;;;;;5016112;28;20522;-71
2021/07/28 07:55:31;;;;;;;10.80;8.40;;;19.50;99.90;;;;;;5015381;28;20827;-71
2021/07/28 07:57:59;;;;;;;9.70;8.80;;;19.50;99.90;;;;;;5015591;28;20464;-71
2021/07/28 08:00:29;;;;;;;10.60;8.60;;;19.40;99.90;;;;;;5016036;28;20885;-69
2021/07/28 08:02:56;;;;;;;11.17;10.00;;;19.30;99.90;;;;;;5009198;28;20490;-69
2021/07/28 08:05:23;;;;;;;10.13;8.80;;;19.20;99.90;;;;;;5009122;28;20534;-68
2021/07/28 08:07:51;;;;;;;9.67;8.87;;;19.20;99.90;;;;;;5015523;28;20871;-67
2021/07/28 08:10:18;;;;;;;10.60;9.50;;;19.20;99.90;;;;;;5015477;28;20960;-68
2021/07/28 08:12:49;;;;;;;10.83;9.03;;;19.20;99.90;;;;;;5016112;28;20827;-68
2021/07/28 08:15:17;;;;;;;9.47;8.57;;;19.10;99.90;;;;;;5016558;28;20519;-67
2021/07/28 08:17:53;;;;;;;10.53;9.07;;;19.10;99.90;;;;;;5017414;28;20962;-67
2021/07/28 08:20:23;;;;;;;11.37;10.17;;;19.10;99.90;;;;;;5018631;28;20452;-66
2021/07/28 08:22:53;;;;;;;11.90;9.27;;;19.00;99.90;;;;;;5019458;28;20459;-66
2021/07/28 08:25:20;;;;;;;11.53;9.33;;;19.00;99.90;;;;;;5017339;28;20480;-65
2021/07/28 08:27:49;;;;;;;11.30;9.53;;;19.10;99.90;;;;;;5020103;28;20468;-66
2021/07/28 09:45:52;;;;;;;7.47;6.73;;;21.90;99.90;;;;;;4480659;23;20483;-65
2021/07/28 09:48:37;;;;;;;8.10;7.30;;;21.60;99.90;;;;;;5017054;28;20819;-64
2021/07/28 09:51:22;;;;;;;7.93;6.70;;;21.90;99.90;;;;;;5015578;28;20523;-64
2021/07/28 09:53:53;;;;;;;8.70;7.80;;;22.30;99.90;;;;;;5017143;28;20456;-64
2021/07/28 09:56:29;;;;;;;8.87;8.00;;;23.00;99.90;;;;;;5013005;28;20559;-65
2021/07/28 09:59:00;;;;;;;8.17;7.47;;;23.60;99.90;;;;;;5014753;28;20464;-66
2021/07/28 10:01:32;;;;;;;9.60;8.27;;;23.70;99.90;;;;;;5014756;28;20456;-65
2021/07/28 10:04:01;;;;;;;8.90;7.87;;;23.60;99.90;;;;;;5005631;28;20798;-65
2021/07/28 10:45:59;;;;;;;9.27;8.47;;;20.40;99.90;;;;;;5392101;23;20571;-70
2021/07/28 10:48:58;;;;;;;8.40;7.70;;;20.60;99.90;;;;;;4990730;28;20527;-69
2021/07/28 11:28:24;;;;;;;7.60;5.27;;;24.60;94.60;;;;;;5238101;23;20551;-64
2021/07/28 11:30:55;;;;;;;5.40;4.83;;;25.20;94.40;;;;;;4998399;28;20559;-63
2021/07/28 11:33:25;;;;;;;7.50;4.80;;;25.30;91.40;;;;;;4994909;28;20464;-64
2021/07/28 11:35:53;;;;;;;6.30;5.70;;;25.10;85.60;;;;;;4986836;28;20464;-63
2021/07/28 11:38:31;;;;;;;7.27;5.70;;;24.40;85.10;;;;;;4995233;28;20889;-63
2021/07/28 11:41:03;;;;;;;5.77;5.27;;;24.00;87.80;;;;;;4997383;28;20461;-63
2021/07/28 11:43:38;;;;;;;6.10;5.50;;;23.70;88.10;;;;;;4996728;28;20468;-62
2021/07/28 11:46:12;;;;;;;6.50;5.43;;;23.70;90.30;;;;;;4997270;28;20759;-62
2021/07/28 11:48:41;;;;;;;7.13;5.70;;;24.00;90.70;;;;;;4996832;28;20461;-63
2021/07/28 11:51:10;;;;;;;5.40;4.97;;;23.70;89.60;;;;;;4997804;28;20583;-63
2021/07/28 11:53:40;;;;;;;6.13;5.63;;;23.20;91.60;;;;;;5000596;28;20489;-63
2021/07/28 11:56:11;;;;;;;6.80;5.93;;;22.70;93.50;;;;;;5001145;28;20468;-63
2021/07/28 11:58:43;;;;;;;5.90;5.50;;;22.60;97.90;;;;;;5000559;28;20449;-62
2021/07/28 12:01:22;;;;;;;5.70;5.27;;;22.50;96.80;;;;;;5001252;28;20460;-61
2021/07/28 12:03:56;;;;;;;5.83;5.23;;;22.50;97.00;;;;;;4992384;28;20473;-62
2021/07/28 12:06:31;;;;;;;5.70;5.20;;;22.80;99.10;;;;;;4990175;28;20556;-62
2021/07/28 12:09:17;;;;;;;5.90;5.40;;;24.10;97.40;;;;;;4993420;28;20453;-62
2021/07/28 12:11:55;;;;;;;5.00;4.60;;;25.40;90.20;;;;;;4981150;28;20593;-61
2021/07/28 12:14:26;;;;;;;5.50;5.00;;;25.00;87.60;;;;;;4997591;28;20766;-62
2021/07/28 12:16:57;;;;;;;5.57;5.07;;;24.80;83.80;;;;;;5000836;28;20472;-61
2021/07/28 12:19:30;;;;;;;7.97;5.30;;;24.20;85.20;;;;;;5000327;28;20804;-61
2021/07/28 12:22:02;;;;;;;5.77;5.13;;;23.50;87.30;;;;;;4991613;28;20468;-60
2021/07/28 12:24:44;;;;;;;5.40;4.90;;;22.80;90.40;;;;;;4981560;28;20472;-60
2021/07/28 12:28:02;;;;;;;5.23;4.83;;;22.20;92.40;;;;;;4980931;28;20787;-60
2021/07/28 12:30:35;;;;;;;5.93;5.43;;;21.80;94.20;;;;;;4961862;28;20501;-60
2021/07/28 12:33:09;;;;;;;6.60;5.20;;;21.60;95.60;;;;;;4961768;29;20841;-61
2021/07/28 12:35:50;;;;;;;5.63;5.13;;;21.50;95.80;;;;;;4961969;29;20771;-61
2021/07/28 12:38:22;;;;;;;5.30;4.80;;;21.50;97.10;;;;;;4964738;28;20472;-61
2021/07/28 12:40:58;;;;;;;5.70;5.20;;;21.40;97.30;;;;;;4980467;28;20568;-60
2021/07/28 12:43:33;;;;;;;5.93;5.00;;;21.30;96.30;;;;;;4980122;28;20466;-60
2021/07/28 12:46:09;;;;;;;5.63;4.90;;;21.40;96.20;;;;;;4981220;28;20469;-60
2021/07/28 12:48:41;;;;;;;7.93;4.30;;;22.20;95.00;;;;;;4980546;28;20473;-60
2021/07/28 12:51:11;;;;;;;5.60;4.57;;;22.70;93.10;;;;;;4980695;28;20508;-60
2021/07/28 12:53:38;;;;;;;4.73;4.20;;;22.80;90.90;;;;;;4980396;28;20465;-60
2021/07/28 12:56:12;;;;;;;5.53;4.23;;;22.60;88.50;;;;;;4980770;28;20450;-60
2021/07/28 12:58:40;;;;;;;5.10;4.60;;;22.20;87.30;;;;;;4980651;28;20524;-60
2021/07/28 13:01:13;;;;;;;5.37;4.87;;;22.10;89.60;;;;;;4980496;28;20823;-60
2021/07/28 13:03:42;;;;;;;5.93;4.33;;;21.90;89.50;;;;;;4972380;28;20469;-60
2021/07/28 13:06:14;;;;;;;4.20;3.80;;;22.00;90.10;;;;;;4976554;28;20478;-60
2021/07/28 13:08:43;;;;;;;5.53;4.30;;;22.00;89.20;;;;;;4979296;28;20545;-60
2021/07/28 13:11:11;;;;;;;3.90;3.60;;;22.10;88.30;;;;;;4979793;28;20497;-60
2021/07/28 13:13:38;;;;;;;4.53;4.23;;;22.30;85.50;;;;;;4979031;28;20862;-60
2021/07/28 13:16:07;;;;;;;4.20;3.90;;;22.70;84.60;;;;;;4979755;28;20481;-60
2021/07/28 13:18:39;;;;;;;4.33;3.97;;;23.50;81.10;;;;;;4978284;28;20477;-60
2021/07/28 13:21:06;;;;;;;4.20;3.90;;;23.80;77.80;;;;;;4977985;28;20462;-60
2021/07/28 13:23:32;;;;;;;4.30;3.90;;;23.60;77.50;;;;;;4977625;28;20474;-60
2021/07/28 13:25:59;;;;;;;4.27;3.90;;;23.50;78.20;;;;;;4979013;28;20465;-60
2021/07/28 13:28:26;;;;;;;4.50;4.10;;;23.60;77.70;;;;;;4978953;28;20865;-59
2021/07/28 13:30:53;;;;;;;4.17;3.70;;;23.30;77.80;;;;;;4979319;28;20559;-59
2021/07/28 13:33:20;;;;;;;4.63;4.23;;;23.10;78.60;;;;;;4978969;28;20465;-60
2021/07/28 13:35:52;;;;;;;4.47;4.07;;;22.80;78.40;;;;;;4979639;28;20470;-59
2021/07/28 13:38:20;;;;;;;4.90;4.50;;;22.80;79.00;;;;;;4979284;28;20500;-60
2021/07/28 13:40:47;;;;;;;4.33;4.03;;;22.60;78.50;;;;;;4979367;28;20458;-59
2021/07/28 13:43:17;;;;;;;5.37;4.27;;;22.50;77.90;;;;;;4980056;28;20476;-59
2021/07/28 13:45:45;;;;;;;5.20;4.70;;;22.40;79.60;;;;;;4979816;28;20466;-59
2021/07/28 13:48:12;;;;;;;5.00;4.50;;;22.30;79.80;;;;;;4980323;28;20767;-59
2021/07/28 13:50:41;;;;;;;4.77;3.93;;;22.10;80.30;;;;;;4979397;28;20500;-59
2021/07/28 13:53:09;;;;;;;3.87;3.57;;;21.90;80.60;;;;;;4979268;28;20470;-59
2021/07/28 13:55:36;;;;;;;4.20;3.80;;;21.90;80.40;;;;;;4979221;28;20913;-59
2021/07/28 13:58:03;;;;;;;5.20;4.67;;;21.80;81.90;;;;;;4979659;28;20458;-60
2021/07/28 14:00:36;;;;;;;4.73;4.37;;;21.80;81.90;;;;;;4979288;28;20879;-59
2021/07/28 14:03:06;;;;;;;4.10;3.70;;;21.90;82.90;;;;;;4971655;28;20768;-59
2021/07/28 14:05:35;;;;;;;4.80;4.40;;;22.10;82.60;;;;;;4975794;28;20484;-59
2021/07/28 14:08:05;;;;;;;4.60;4.20;;;22.30;82.80;;;;;;4978672;28;20465;-59
2021/07/28 14:10:35;;;;;;;4.67;4.23;;;22.50;82.40;;;;;;4978834;28;20472;-59
2021/07/28 14:13:05;;;;;;;4.77;4.37;;;22.70;81.80;;;;;;4978956;28;20454;-59
2021/07/28 14:15:35;;;;;;;4.33;4.03;;;23.40;81.70;;;;;;4977654;28;20830;-59
2021/07/28 14:18:02;;;;;;;5.23;4.13;;;24.20;79.90;;;;;;4979365;28;20469;-59
2021/07/28 14:20:30;;;;;;;4.20;3.90;;;24.40;76.10;;;;;;4978673;28;20539;-59
2021/07/28 14:22:57;;;;;;;6.53;4.00;;;24.10;76.00;;;;;;4978419;28;20472;-59
2021/07/28 14:25:24;;;;;;;5.77;4.47;;;23.50;75.20;;;;;;4979121;28;20466;-59
2021/07/28 14:27:54;;;;;;;4.90;4.30;;;23.20;77.40;;;;;;4979526;28;20461;-58
2021/07/28 14:30:23;;;;;;;5.50;4.30;;;23.20;76.80;;;;;;4978602;28;20470;-59
2021/07/28 14:32:52;;;;;;;5.57;4.83;;;23.10;76.40;;;;;;4978724;28;20470;-59
2021/07/28 14:35:19;;;;;;;4.07;3.77;;;23.20;77.20;;;;;;4978434;28;20532;-58
2021/07/28 14:37:46;;;;;;;4.40;4.03;;;23.10;76.60;;;;;;4979162;28;20466;-59
2021/07/28 14:40:15;;;;;;;5.00;4.00;;;23.20;78.20;;;;;;4978064;28;20462;-58
2021/07/28 14:42:47;;;;;;;5.10;4.57;;;23.30;76.50;;;;;;4978939;28;20462;-58
2021/07/28 14:45:15;;;;;;;5.73;4.30;;;23.10;76.50;;;;;;4978453;28;20468;-57
2021/07/28 14:47:44;;;;;;;6.43;3.90;;;23.00;77.80;;;;;;4979151;28;20856;-59
2021/07/28 14:50:12;;;;;;;5.57;4.50;;;23.60;77.10;;;;;;4979170;28;20473;-58
2021/07/28 14:52:39;;;;;;;4.00;3.70;;;24.30;75.20;;;;;;4978486;28;20476;-59
2021/07/28 14:55:10;;;;;;;7.13;4.07;;;24.70;73.20;;;;;;4978345;28;20469;-59
2021/07/28 14:57:37;;;;;;;4.70;4.20;;;24.10;72.00;;;;;;4979261;28;20891;-57
2021/07/28 15:00:06;;;;;;;4.90;4.50;;;23.30;72.20;;;;;;4978876;28;20800;-59
2021/07/28 15:02:37;;;;;;;4.30;3.57;;;22.60;74.40;;;;;;4975635;28;20811;-58
2021/07/28 15:05:05;;;;;;;6.63;4.10;;;22.30;76.60;;;;;;4970187;28;20580;-58
2021/07/28 15:07:32;;;;;;;5.67;4.80;;;22.10;78.70;;;;;;4977468;28;20473;-58
2021/07/28 15:09:59;;;;;;;5.20;3.87;;;22.00;79.60;;;;;;4977333;28;20782;-58
2021/07/28 15:12:28;;;;;;;5.17;4.67;;;22.00;81.10;;;;;;4977580;28;20929;-56
2021/07/28 15:14:58;;;;;;;4.53;4.10;;;22.10;81.10;;;;;;4978022;28;20466;-59
2021/07/28 15:17:25;;;;;;;5.33;4.20;;;22.70;80.40;;;;;;4977603;28;20524;-59
2021/07/28 15:19:58;;;;;;;5.63;4.87;;;23.10;79.30;;;;;;4977907;28;20469;-58
2021/07/28 15:22:25;;;;;;;4.27;3.80;;;23.20;77.80;;;;;;4977570;28;20454;-58
2021/07/28 15:24:52;;;;;;;5.10;4.70;;;22.80;76.80;;;;;;4977690;28;20474;-57
2021/07/28 15:27:19;;;;;;;4.33;4.03;;;22.70;78.00;;;;;;4980158;28;20605;-56
2021/07/28 15:29:46;;;;;;;5.90;4.10;;;23.00;78.50;;;;;;4981765;28;20548;-55
2021/07/28 15:32:13;;;;;;;6.50;3.90;;;23.10;77.60;;;;;;4981273;28;20500;-58
2021/07/28 15:34:42;;;;;;;5.30;3.70;;;22.90;76.60;;;;;;4982325;28;20493;-56
2021/07/28 15:37:19;;;;;;;4.57;3.77;;;22.70;76.70;;;;;;4981645;28;20993;-56
2021/07/28 15:40:06;;;;;;;4.37;4.07;;;22.60;78.50;;;;;;4965720;28;20929;-57
2021/07/28 15:42:53;;;;;;;6.23;5.10;;;22.60;79.10;;;;;;4960839;29;20521;-58
2021/07/28 15:45:20;;;;;;;4.43;3.63;;;22.80;78.90;;;;;;4960392;29;20873;-57
2021/07/28 15:47:47;;;;;;;6.77;4.80;;;23.00;78.50;;;;;;4960836;29;20931;-57
2021/07/28 15:50:15;;;;;;;5.30;4.47;;;23.40;77.30;;;;;;4961673;29;20920;-58
2021/07/28 15:52:44;;;;;;;5.27;4.33;;;23.70;76.10;;;;;;4961747;29;20961;-57
2021/07/28 15:55:13;;;;;;;6.10;4.03;;;23.80;76.00;;;;;;4962292;29;20838;-57
2021/07/28 15:57:40;;;;;;;5.80;4.00;;;23.60;76.10;;;;;;4962140;29;20466;-58
2021/07/28 16:00:09;;;;;;;4.83;3.97;;;23.40;74.40;;;;;;4961940;29;20473;-57
2021/07/28 16:02:39;;;;;;;3.87;3.57;;;23.00;73.70;;;;;;4961405;28;20588;-58
2021/07/28 16:05:09;;;;;;;4.07;3.67;;;23.00;74.20;;;;;;4964498;28;20478;-58
2021/07/28 16:07:37;;;;;;;5.30;3.87;;;22.80;75.30;;;;;;4961902;28;20454;-58
2021/07/28 16:10:08;;;;;;;4.07;3.70;;;22.80;75.80;;;;;;4961838;28;20518;-57
2021/07/28 16:12:35;;;;;;;5.20;3.97;;;22.60;76.30;;;;;;4961825;28;20965;-57
2021/07/28 16:15:09;;;;;;;5.77;4.60;;;22.30;77.60;;;;;;4961420;29;20473;-57
2021/07/28 16:17:45;;;;;;;5.20;4.10;;;22.20;80.50;;;;;;4961767;29;20896;-57
2021/07/28 16:20:19;;;;;;;4.03;3.73;;;22.30;79.30;;;;;;4961943;29;20473;-57
2021/07/28 16:23:01;;;;;;;5.70;4.40;;;22.30;78.50;;;;;;4961448;28;20466;-57
2021/07/28 16:25:35;;;;;;;5.90;4.07;;;22.10;76.00;;;;;;4961698;29;20965;-57
2021/07/28 16:28:03;;;;;;;4.97;4.47;;;22.10;76.50;;;;;;4962059;29;20463;-58
2021/07/28 16:30:36;;;;;;;4.97;4.23;;;22.30;77.30;;;;;;4961762;29;20477;-55
2021/07/28 16:33:04;;;;;;;3.80;3.27;;;22.50;76.90;;;;;;4961271;29;20498;-58
2021/07/28 16:35:32;;;;;;;5.20;3.70;;;22.50;77.20;;;;;;4961735;29;20470;-57
2021/07/28 16:38:00;;;;;;;4.13;3.80;;;22.40;77.30;;;;;;4960202;28;20476;-57
2021/07/28 16:40:34;;;;;;;4.83;4.10;;;22.60;78.40;;;;;;4980575;28;20453;-58
2021/07/28 16:43:05;;;;;;;4.20;3.80;;;22.60;77.80;;;;;;4980605;28;20773;-58
2021/07/28 16:45:32;;;;;;;4.40;4.00;;;22.60;77.90;;;;;;4980831;28;20462;-55
2021/07/28 16:47:59;;;;;;;4.80;4.20;;;22.40;78.80;;;;;;4961643;29;20505;-57
2021/07/28 16:50:27;;;;;;;4.70;4.30;;;22.00;79.40;;;;;;4965939;28;20528;-58
2021/07/28 16:52:54;;;;;;;5.83;4.00;;;21.90;80.10;;;;;;4980279;28;20577;-57
2021/07/28 16:55:23;;;;;;;5.20;4.70;;;21.70;79.80;;;;;;4980589;28;20528;-57
2021/07/28 16:57:52;;;;;;;3.70;3.40;;;21.70;81.20;;;;;;4981311;28;20516;-58
2021/07/28 17:00:20;;;;;;;5.80;4.50;;;21.70;81.30;;;;;;4980283;28;20466;-54
2021/07/28 17:02:49;;;;;;;3.87;3.47;;;21.80;81.00;;;;;;4976649;28;20760;-57
2021/07/28 17:05:25;;;;;;;9.87;4.13;;;21.60;81.70;;;;;;4974062;28;20818;-55
2021/07/28 17:07:53;;;;;;;4.60;4.20;;;21.80;82.30;;;;;;4980080;28;20488;-58
2021/07/28 17:10:23;;;;;;;4.37;3.97;;;21.80;82.80;;;;;;4979853;28;20497;-56
2021/07/28 17:12:55;;;;;;;8.67;3.80;;;21.90;83.20;;;;;;4979948;28;20809;-58
2021/07/28 17:15:25;;;;;;;4.40;3.90;;;21.90;82.30;;;;;;4980956;28;20521;-53
2021/07/28 17:17:54;;;;;;;4.17;3.77;;;21.60;83.00;;;;;;4980096;28;20466;-57
2021/07/28 17:20:21;;;;;;;6.57;3.97;;;21.60;83.90;;;;;;4980783;28;20839;-58
2021/07/28 17:22:48;;;;;;;4.00;3.70;;;21.70;84.00;;;;;;4979662;28;20465;-58
2021/07/28 17:25:15;;;;;;;3.60;3.20;;;22.00;83.60;;;;;;4980056;28;20470;-57
2021/07/28 17:27:44;;;;;;;4.63;4.23;;;22.00;82.20;;;;;;4980343;28;20465;-57
2021/07/28 17:30:17;;;;;;;6.70;3.90;;;22.00;82.10;;;;;;4979600;28;20997;-55
2021/07/28 17:32:44;;;;;;;4.23;3.93;;;21.90;81.40;;;;;;4980061;28;20834;-54
2021/07/28 17:35:21;;;;;;;4.60;4.17;;;21.80;81.80;;;;;;4980465;28;20466;-57
2021/07/28 17:37:49;;;;;;;3.90;3.57;;;21.70;82.30;;;;;;4980184;28;20465;-57
2021/07/28 17:40:19;;;;;;;4.10;3.70;;;21.60;81.90;;;;;;4970815;28;20461;-54
2021/07/28 17:42:49;;;;;;;5.27;4.30;;;21.50;82.80;;;;;;4980228;28;20461;-54
2021/07/28 17:45:21;;;;;;;5.50;3.67;;;21.50;83.80;;;;;;4979872;28;20871;-57
2021/07/28 17:47:48;;;;;;;4.93;4.33;;;21.40;83.70;;;;;;4980095;28;20462;-56
2021/07/28 17:50:15;;;;;;;4.77;3.57;;;21.30;83.90;;;;;;4976654;28;20771;-57
2021/07/28 17:52:45;;;;;;;6.13;4.00;;;21.30;85.20;;;;;;4978505;28;20544;-57
2021/07/28 17:55:12;;;;;;;5.07;3.87;;;21.30;84.70;;;;;;4978786;28;20461;-57